sensor_id;sensor_type;location;lat;lon;timestamp;temperature;humidity
9497;DHT22;4786;51.270;4.456;2022-09-12T00:00:03;16.00;99.90
9497;DHT22;4786;51.270;4.456;2022-09-12T00:02:29;16.00;99.90
9497;DHT22;4786;51.270;4.456;2022-09-12T00:04:55;16.00;99.90
9497;DHT22;4786;51.270;4.456;2022-09-12T00:07:21;16.00;99.90
9497;DHT22;4786;51.270;4.456;2022-09-12T00:09:46;16.00;99.90
9497;DHT22;4786;51.270;4.456;2022-09-12T00:12:12;15.90;99.90
9497;DHT22;4786;51.270;4.456;2022-09-12T00:14:38;15.90;99.90
9497;DHT22;4786;51.270;4.456;2022-09-12T00:17:04;15.90;99.90
9497;DHT22;4786;51.270;4.456;2022-09-12T00:19:30;15.90;99.90
9497;DHT22;4786;51.270;4.456;2022-09-12T00:21:56;15.90;99.90
9497;DHT22;4786;51.270;4.456;2022-09-12T00:24:22;15.90;99.90
9497;DHT22;4786;51.270;4.456;2022-09-12T00:26:48;15.90;99.90
9497;DHT22;4786;51.270;4.456;2022-09-12T00:29:20;15.80;99.90
9497;DHT22;4786;51.270;4.456;2022-09-12T00:31:47;15.80;99.90
9497;DHT22;4786;51.270;4.456;2022-09-12T00:34:13;15.80;99.90
9497;DHT22;4786;51.270;4.456;2022-09-12T00:36:39;15.80;99.90
9497;DHT22;4786;51.270;4.456;2022-09-12T00:39:06;15.80;99.90
9497;DHT22;4786;51.270;4.456;2022-09-12T00:41:36;15.80;99.90
9497;DHT22;4786;51.270;4.456;2022-09-12T00:46:52;15.70;99.90
9497;DHT22;4786;51.270;4.456;2022-09-12T00:49:39;15.70;99.90
9497;DHT22;4786;51.270;4.456;2022-09-12T00:57:15;15.70;99.90
9497;DHT22;4786;51.270;4.456;2022-09-12T00:59:46;15.60;99.90
9497;DHT22;4786;51.270;4.456;2022-09-12T01:02:14;15.60;99.90
9497;DHT22;4786;51.270;4.456;2022-09-12T01:04:40;15.60;99.90
9497;DHT22;4786;51.270;4.456;2022-09-12T01:07:07;15.50;99.90
9497;DHT22;4786;51.270;4.456;2022-09-12T01:09:35;15.40;99.90
9497;DHT22;4786;51.270;4.456;2022-09-12T01:12:02;15.40;99.90
9497;DHT22;4786;51.270;4.456;2022-09-12T01:14:29;15.40;99.90
9497;DHT22;4786;51.270;4.456;2022-09-12T01:16:55;15.40;99.90
9497;DHT22;4786;51.270;4.456;2022-09-12T01:22:22;15.40;99.90
9497;DHT22;4786;51.270;4.456;2022-09-12T01:33:33;15.40;99.90
9497;DHT22;4786;51.270;4.456;2022-09-12T01:36:37;15.40;99.90
9497;DHT22;4786;51.270;4.456;2022-09-12T01:39:26;15.30;99.90
9497;DHT22;4786;51.270;4.456;2022-09-12T01:44:54;15.30;99.90
9497;DHT22;4786;51.270;4.456;2022-09-12T01:47:47;15.30;99.90
9497;DHT22;4786;51.270;4.456;2022-09-12T01:50:22;15.30;99.90
9497;DHT22;4786;51.270;4.456;2022-09-12T01:52:52;15.30;99.90
9497;DHT22;4786;51.270;4.456;2022-09-12T01:55:28;15.40;99.90
9497;DHT22;4786;51.270;4.456;2022-09-12T01:58:12;15.30;99.90
9497;DHT22;4786;51.270;4.456;2022-09-12T02:00:48;15.30;99.90
9497;DHT22;4786;51.270;4.456;2022-09-12T02:03:19;15.30;99.90
9497;DHT22;4786;51.270;4.456;2022-09-12T02:05:51;15.30;99.90
9497;DHT22;4786;51.270;4.456;2022-09-12T02:08:31;15.30;99.90
9497;DHT22;4786;51.270;4.456;2022-09-12T02:11:08;15.20;99.90
9497;DHT22;4786;51.270;4.456;2022-09-12T02:16:39;15.20;99.90
9497;DHT22;4786;51.270;4.456;2022-09-12T02:19:13;15.20;99.90
9497;DHT22;4786;51.270;4.456;2022-09-12T02:21:53;15.20;99.90
9497;DHT22;4786;51.270;4.456;2022-09-12T02:24:22;15.10;99.90
9497;DHT22;4786;51.270;4.456;2022-09-12T02:26:54;15.10;99.90
9497;DHT22;4786;51.270;4.456;2022-09-12T02:29:21;15.10;99.90
9497;DHT22;4786;51.270;4.456;2022-09-12T02:31:53;15.10;99.90
9497;DHT22;4786;51.270;4.456;2022-09-12T02:34:44;15.20;99.90
9497;DHT22;4786;51.270;4.456;2022-09-12T02:39:58;15.20;99.90
9497;DHT22;4786;51.270;4.456;2022-09-12T02:42:24;15.30;99.90
9497;DHT22;4786;51.270;4.456;2022-09-12T02:44:52;15.40;99.90
9497;DHT22;4786;51.270;4.456;2022-09-12T02:47:50;15.30;99.90
9497;DHT22;4786;51.270;4.456;2022-09-12T02:50:18;15.30;99.90
9497;DHT22;4786;51.270;4.456;2022-09-12T02:52:44;15.40;99.90
9497;DHT22;4786;51.270;4.456;2022-09-12T02:55:11;15.40;99.90
9497;DHT22;4786;51.270;4.456;2022-09-12T02:57:38;15.40;99.90
9497;DHT22;4786;51.270;4.456;2022-09-12T03:00:05;15.40;99.90
9497;DHT22;4786;51.270;4.456;2022-09-12T03:05:23;15.30;99.90
9497;DHT22;4786;51.270;4.456;2022-09-12T03:10:39;15.30;99.90
9497;DHT22;4786;51.270;4.456;2022-09-12T03:16:30;15.30;99.90
9497;DHT22;4786;51.270;4.456;2022-09-12T03:19:23;15.30;99.90
9497;DHT22;4786;51.270;4.456;2022-09-12T03:22:15;15.30;99.90
9497;DHT22;4786;51.270;4.456;2022-09-12T03:24:53;15.30;99.90
9497;DHT22;4786;51.270;4.456;2022-09-12T03:27:32;15.30;99.90
9497;DHT22;4786;51.270;4.456;2022-09-12T03:30:00;15.20;99.90
9497;DHT22;4786;51.270;4.456;2022-09-12T03:32:41;15.20;99.90
9497;DHT22;4786;51.270;4.456;2022-09-12T03:35:09;15.20;99.90
9497;DHT22;4786;51.270;4.456;2022-09-12T03:37:35;15.10;99.90
9497;DHT22;4786;51.270;4.456;2022-09-12T03:40:02;15.10;99.90
9497;DHT22;4786;51.270;4.456;2022-09-12T03:42:28;15.20;99.90
9497;DHT22;4786;51.270;4.456;2022-09-12T03:44:54;15.20;99.90
9497;DHT22;4786;51.270;4.456;2022-09-12T03:47:19;15.20;99.90
9497;DHT22;4786;51.270;4.456;2022-09-12T03:49:45;15.10;99.90
9497;DHT22;4786;51.270;4.456;2022-09-12T03:52:11;15.20;99.90
9497;DHT22;4786;51.270;4.456;2022-09-12T03:54:37;15.20;99.90
9497;DHT22;4786;51.270;4.456;2022-09-12T03:57:04;15.20;99.90
9497;DHT22;4786;51.270;4.456;2022-09-12T03:59:30;15.20;99.90
9497;DHT22;4786;51.270;4.456;2022-09-12T04:01:56;15.20;99.90
9497;DHT22;4786;51.270;4.456;2022-09-12T04:04:22;15.10;99.90
9497;DHT22;4786;51.270;4.456;2022-09-12T04:06:47;15.20;99.90
9497;DHT22;4786;51.270;4.456;2022-09-12T04:09:13;15.20;99.90
9497;DHT22;4786;51.270;4.456;2022-09-12T04:11:40;15.10;99.90
9497;DHT22;4786;51.270;4.456;2022-09-12T04:14:06;15.10;99.90
9497;DHT22;4786;51.270;4.456;2022-09-12T04:16:31;15.10;99.90
9497;DHT22;4786;51.270;4.456;2022-09-12T04:18:57;15.00;99.90
9497;DHT22;4786;51.270;4.456;2022-09-12T04:21:23;15.00;99.90
9497;DHT22;4786;51.270;4.456;2022-09-12T04:23:50;15.00;99.90
9497;DHT22;4786;51.270;4.456;2022-09-12T04:26:17;15.00;99.90
9497;DHT22;4786;51.270;4.456;2022-09-12T04:28:43;15.00;99.90
9497;DHT22;4786;51.270;4.456;2022-09-12T04:31:14;15.00;99.90
9497;DHT22;4786;51.270;4.456;2022-09-12T04:33:42;15.00;99.90
9497;DHT22;4786;51.270;4.456;2022-09-12T04:36:12;15.10;99.90
9497;DHT22;4786;51.270;4.456;2022-09-12T04:38:41;15.00;99.90
9497;DHT22;4786;51.270;4.456;2022-09-12T04:43:42;15.10;99.90
9497;DHT22;4786;51.270;4.456;2022-09-12T04:46:11;15.00;99.90
9497;DHT22;4786;51.270;4.456;2022-09-12T04:48:38;15.00;99.90
9497;DHT22;4786;51.270;4.456;2022-09-12T04:51:22;15.10;99.90
9497;DHT22;4786;51.270;4.456;2022-09-12T04:53:52;15.00;99.90
9497;DHT22;4786;51.270;4.456;2022-09-12T04:56:20;15.00;99.90
9497;DHT22;4786;51.270;4.456;2022-09-12T04:58:46;15.00;99.90
9497;DHT22;4786;51.270;4.456;2022-09-12T05:01:15;15.00;99.90
9497;DHT22;4786;51.270;4.456;2022-09-12T05:03:42;15.00;99.90
9497;DHT22;4786;51.270;4.456;2022-09-12T05:06:13;15.00;99.90
9497;DHT22;4786;51.270;4.456;2022-09-12T05:08:39;15.00;99.90
9497;DHT22;4786;51.270;4.456;2022-09-12T05:11:09;15.00;99.90
9497;DHT22;4786;51.270;4.456;2022-09-12T05:13:36;15.00;99.90
9497;DHT22;4786;51.270;4.456;2022-09-12T05:16:04;15.00;99.90
9497;DHT22;4786;51.270;4.456;2022-09-12T05:18:32;15.00;99.90
9497;DHT22;4786;51.270;4.456;2022-09-12T05:20:59;15.00;99.90
9497;DHT22;4786;51.270;4.456;2022-09-12T05:23:26;15.00;99.90
9497;DHT22;4786;51.270;4.456;2022-09-12T05:25:53;15.00;99.90
9497;DHT22;4786;51.270;4.456;2022-09-12T05:28:20;15.00;99.90
9497;DHT22;4786;51.270;4.456;2022-09-12T05:30:47;15.00;99.90
9497;DHT22;4786;51.270;4.456;2022-09-12T05:33:13;14.90;99.90
9497;DHT22;4786;51.270;4.456;2022-09-12T05:35:40;14.90;99.90
9497;DHT22;4786;51.270;4.456;2022-09-12T05:38:06;14.60;99.90
9497;DHT22;4786;51.270;4.456;2022-09-12T05:40:33;14.90;99.90
9497;DHT22;4786;51.270;4.456;2022-09-12T05:42:59;15.00;99.90
9497;DHT22;4786;51.270;4.456;2022-09-12T05:45:25;15.00;99.90
9497;DHT22;4786;51.270;4.456;2022-09-12T05:47:52;15.00;99.90
9497;DHT22;4786;51.270;4.456;2022-09-12T05:50:20;15.00;99.90
9497;DHT22;4786;51.270;4.456;2022-09-12T05:52:46;15.10;99.90
9497;DHT22;4786;51.270;4.456;2022-09-12T05:55:12;15.10;99.90
9497;DHT22;4786;51.270;4.456;2022-09-12T05:57:37;15.10;99.90
9497;DHT22;4786;51.270;4.456;2022-09-12T06:00:04;15.10;99.90
9497;DHT22;4786;51.270;4.456;2022-09-12T06:02:30;15.10;99.90
9497;DHT22;4786;51.270;4.456;2022-09-12T06:04:56;15.10;99.90
9497;DHT22;4786;51.270;4.456;2022-09-12T06:07:22;15.10;99.90
9497;DHT22;4786;51.270;4.456;2022-09-12T06:09:48;15.10;99.90
9497;DHT22;4786;51.270;4.456;2022-09-12T06:12:14;15.10;99.90
9497;DHT22;4786;51.270;4.456;2022-09-12T06:14:40;15.20;99.90
9497;DHT22;4786;51.270;4.456;2022-09-12T06:17:05;15.30;99.90
9497;DHT22;4786;51.270;4.456;2022-09-12T06:19:31;15.30;99.90
9497;DHT22;4786;51.270;4.456;2022-09-12T06:21:56;15.40;99.90
9497;DHT22;4786;51.270;4.456;2022-09-12T06:24:23;15.40;99.90
9497;DHT22;4786;51.270;4.456;2022-09-12T06:26:49;15.50;99.90
9497;DHT22;4786;51.270;4.456;2022-09-12T06:29:17;15.70;99.90
9497;DHT22;4786;51.270;4.456;2022-09-12T06:31:44;15.80;99.90
9497;DHT22;4786;51.270;4.456;2022-09-12T06:34:12;16.10;99.90
9497;DHT22;4786;51.270;4.456;2022-09-12T06:36:43;16.40;99.90
9497;DHT22;4786;51.270;4.456;2022-09-12T06:39:16;16.60;99.90
9497;DHT22;4786;51.270;4.456;2022-09-12T06:41:42;16.70;99.90
9497;DHT22;4786;51.270;4.456;2022-09-12T06:44:16;16.80;99.90
9497;DHT22;4786;51.270;4.456;2022-09-12T06:46:43;16.80;99.90
9497;DHT22;4786;51.270;4.456;2022-09-12T06:49:09;16.90;99.90
9497;DHT22;4786;51.270;4.456;2022-09-12T06:51:35;16.90;99.90
9497;DHT22;4786;51.270;4.456;2022-09-12T06:54:02;16.90;99.90
9497;DHT22;4786;51.270;4.456;2022-09-12T06:56:28;16.90;99.90
9497;DHT22;4786;51.270;4.456;2022-09-12T06:58:57;16.80;99.90
9497;DHT22;4786;51.270;4.456;2022-09-12T07:01:26;16.90;99.90
9497;DHT22;4786;51.270;4.456;2022-09-12T07:03:57;16.90;99.90
9497;DHT22;4786;51.270;4.456;2022-09-12T07:06:25;16.90;99.90
9497;DHT22;4786;51.270;4.456;2022-09-12T07:09:00;17.00;99.90
9497;DHT22;4786;51.270;4.456;2022-09-12T07:11:32;17.00;99.90
9497;DHT22;4786;51.270;4.456;2022-09-12T07:14:00;17.00;99.90
9497;DHT22;4786;51.270;4.456;2022-09-12T07:16:26;17.10;99.90
9497;DHT22;4786;51.270;4.456;2022-09-12T07:18:57;17.20;99.90
9497;DHT22;4786;51.270;4.456;2022-09-12T07:21:23;17.30;99.90
9497;DHT22;4786;51.270;4.456;2022-09-12T07:23:50;17.40;99.90
9497;DHT22;4786;51.270;4.456;2022-09-12T07:26:27;17.50;99.90
9497;DHT22;4786;51.270;4.456;2022-09-12T07:28:54;17.60;99.90
9497;DHT22;4786;51.270;4.456;2022-09-12T07:31:22;17.70;99.90
9497;DHT22;4786;51.270;4.456;2022-09-12T07:33:49;17.70;99.90
9497;DHT22;4786;51.270;4.456;2022-09-12T07:36:18;17.70;99.90
9497;DHT22;4786;51.270;4.456;2022-09-12T07:38:45;17.80;99.90
9497;DHT22;4786;51.270;4.456;2022-09-12T07:41:19;17.80;99.90
9497;DHT22;4786;51.270;4.456;2022-09-12T07:43:46;17.80;99.90
9497;DHT22;4786;51.270;4.456;2022-09-12T07:46:12;17.90;99.90
9497;DHT22;4786;51.270;4.456;2022-09-12T07:48:39;17.90;99.90
9497;DHT22;4786;51.270;4.456;2022-09-12T07:51:08;18.10;99.90
9497;DHT22;4786;51.270;4.456;2022-09-12T07:53:37;18.20;99.90
9497;DHT22;4786;51.270;4.456;2022-09-12T07:56:05;18.20;99.90
9497;DHT22;4786;51.270;4.456;2022-09-12T07:58:33;18.30;99.90
9497;DHT22;4786;51.270;4.456;2022-09-12T08:01:06;18.30;99.90
9497;DHT22;4786;51.270;4.456;2022-09-12T08:03:35;18.40;99.90
9497;DHT22;4786;51.270;4.456;2022-09-12T08:06:06;18.30;99.90
9497;DHT22;4786;51.270;4.456;2022-09-12T08:08:33;18.30;99.90
9497;DHT22;4786;51.270;4.456;2022-09-12T08:11:01;18.40;99.90
9497;DHT22;4786;51.270;4.456;2022-09-12T08:13:28;18.30;99.90
9497;DHT22;4786;51.270;4.456;2022-09-12T08:15:58;18.30;99.90
9497;DHT22;4786;51.270;4.456;2022-09-12T08:18:26;18.40;99.90
9497;DHT22;4786;51.270;4.456;2022-09-12T08:21:01;18.40;99.90
9497;DHT22;4786;51.270;4.456;2022-09-12T08:23:27;18.40;99.90
9497;DHT22;4786;51.270;4.456;2022-09-12T08:25:58;18.40;99.90
9497;DHT22;4786;51.270;4.456;2022-09-12T08:28:24;18.50;99.90
9497;DHT22;4786;51.270;4.456;2022-09-12T08:30:51;18.50;99.90
9497;DHT22;4786;51.270;4.456;2022-09-12T08:33:17;18.60;99.90
9497;DHT22;4786;51.270;4.456;2022-09-12T08:35:42;18.60;99.90
9497;DHT22;4786;51.270;4.456;2022-09-12T08:38:08;18.70;99.90
9497;DHT22;4786;51.270;4.456;2022-09-12T08:40:50;18.80;99.90
9497;DHT22;4786;51.270;4.456;2022-09-12T08:46:37;19.10;99.90
9497;DHT22;4786;51.270;4.456;2022-09-12T08:49:11;19.20;99.90
9497;DHT22;4786;51.270;4.456;2022-09-12T08:51:38;19.30;99.90
9497;DHT22;4786;51.270;4.456;2022-09-12T08:54:24;19.40;99.90
9497;DHT22;4786;51.270;4.456;2022-09-12T08:56:55;19.60;99.90
9497;DHT22;4786;51.270;4.456;2022-09-12T08:59:23;19.70;99.90
9497;DHT22;4786;51.270;4.456;2022-09-12T09:01:53;19.90;99.90
9497;DHT22;4786;51.270;4.456;2022-09-12T09:18:43;21.30;99.90
9497;DHT22;4786;51.270;4.456;2022-09-12T09:21:24;21.50;99.90
9497;DHT22;4786;51.270;4.456;2022-09-12T09:23:59;21.80;99.90
9497;DHT22;4786;51.270;4.456;2022-09-12T09:29:17;22.20;99.90
9497;DHT22;4786;51.270;4.456;2022-09-12T09:31:46;22.50;99.90
9497;DHT22;4786;51.270;4.456;2022-09-12T09:34:24;22.70;99.90
9497;DHT22;4786;51.270;4.456;2022-09-12T09:37:17;22.90;99.90
9497;DHT22;4786;51.270;4.456;2022-09-12T09:42:31;23.50;99.90
9497;DHT22;4786;51.270;4.456;2022-09-12T09:45:10;23.70;99.90
9497;DHT22;4786;51.270;4.456;2022-09-12T09:47:37;23.90;99.90
9497;DHT22;4786;51.270;4.456;2022-09-12T09:50:03;24.00;99.90
9497;DHT22;4786;51.270;4.456;2022-09-12T09:52:29;24.20;99.90
9497;DHT22;4786;51.270;4.456;2022-09-12T09:54:59;24.20;99.90
9497;DHT22;4786;51.270;4.456;2022-09-12T10:00:32;24.20;99.90
9497;DHT22;4786;51.270;4.456;2022-09-12T10:03:23;24.30;99.90
9497;DHT22;4786;51.270;4.456;2022-09-12T10:05:52;24.60;99.90
9497;DHT22;4786;51.270;4.456;2022-09-12T10:16:04;25.10;99.90
9497;DHT22;4786;51.270;4.456;2022-09-12T10:18:50;25.30;99.90
9497;DHT22;4786;51.270;4.456;2022-09-12T10:26:25;25.50;99.90
9497;DHT22;4786;51.270;4.456;2022-09-12T10:28:53;25.60;99.90
9497;DHT22;4786;51.270;4.456;2022-09-12T10:31:42;25.60;99.90
9497;DHT22;4786;51.270;4.456;2022-09-12T10:34:29;25.80;99.90
9497;DHT22;4786;51.270;4.456;2022-09-12T10:39:28;25.80;99.90
9497;DHT22;4786;51.270;4.456;2022-09-12T10:41:55;25.80;99.90
9497;DHT22;4786;51.270;4.456;2022-09-12T10:44:27;25.80;99.90
9497;DHT22;4786;51.270;4.456;2022-09-12T10:46:54;25.80;99.90
9497;DHT22;4786;51.270;4.456;2022-09-12T10:51:49;26.00;99.90
9497;DHT22;4786;51.270;4.456;2022-09-12T10:54:17;26.10;99.90
9497;DHT22;4786;51.270;4.456;2022-09-12T11:00:07;26.20;99.90
9497;DHT22;4786;51.270;4.456;2022-09-12T11:08:09;26.20;99.90
9497;DHT22;4786;51.270;4.456;2022-09-12T11:16:12;26.30;99.90
9497;DHT22;4786;51.270;4.456;2022-09-12T11:22:32;26.40;99.90
9497;DHT22;4786;51.270;4.456;2022-09-12T11:24:57;26.40;99.90
9497;DHT22;4786;51.270;4.456;2022-09-12T11:30:21;26.50;99.90
9497;DHT22;4786;51.270;4.456;2022-09-12T11:35:57;26.60;99.90
9497;DHT22;4786;51.270;4.456;2022-09-12T11:41:25;26.40;99.90
9497;DHT22;4786;51.270;4.456;2022-09-12T11:44:21;26.50;99.90
9497;DHT22;4786;51.270;4.456;2022-09-12T11:46:49;26.40;99.90
9497;DHT22;4786;51.270;4.456;2022-09-12T11:52:12;26.20;99.90
9497;DHT22;4786;51.270;4.456;2022-09-12T11:55:09;26.30;99.90
9497;DHT22;4786;51.270;4.456;2022-09-12T11:58:01;26.40;99.90
9497;DHT22;4786;51.270;4.456;2022-09-12T12:00:36;26.50;99.90
9497;DHT22;4786;51.270;4.456;2022-09-12T12:03:16;26.70;99.90
9497;DHT22;4786;51.270;4.456;2022-09-12T12:08:39;26.60;99.90
9497;DHT22;4786;51.270;4.456;2022-09-12T12:11:07;26.60;99.90
9497;DHT22;4786;51.270;4.456;2022-09-12T12:13:35;26.70;99.90
9497;DHT22;4786;51.270;4.456;2022-09-12T12:16:11;26.70;99.90
9497;DHT22;4786;51.270;4.456;2022-09-12T12:18:39;26.70;99.90
9497;DHT22;4786;51.270;4.456;2022-09-12T12:29:12;26.90;99.90
9497;DHT22;4786;51.270;4.456;2022-09-12T12:34:44;26.60;99.90
9497;DHT22;4786;51.270;4.456;2022-09-12T12:47:58;26.70;99.90
9497;DHT22;4786;51.270;4.456;2022-09-12T12:50:26;26.70;99.90
9497;DHT22;4786;51.270;4.456;2022-09-12T12:55:51;26.70;99.90
9497;DHT22;4786;51.270;4.456;2022-09-12T12:58:36;26.70;99.90
9497;DHT22;4786;51.270;4.456;2022-09-12T13:03:35;26.70;99.50
9497;DHT22;4786;51.270;4.456;2022-09-12T13:06:04;26.60;99.70
9497;DHT22;4786;51.270;4.456;2022-09-12T13:08:59;26.60;99.90
9497;DHT22;4786;51.270;4.456;2022-09-12T13:11:40;26.50;99.90
9497;DHT22;4786;51.270;4.456;2022-09-12T13:17:00;26.40;99.90
9497;DHT22;4786;51.270;4.456;2022-09-12T13:19:30;26.30;99.90
9497;DHT22;4786;51.270;4.456;2022-09-12T13:22:05;26.20;99.80
9497;DHT22;4786;51.270;4.456;2022-09-12T13:24:32;26.20;99.90
9497;DHT22;4786;51.270;4.456;2022-09-12T13:26:58;26.20;99.90
9497;DHT22;4786;51.270;4.456;2022-09-12T13:29:26;26.20;99.90
9497;DHT22;4786;51.270;4.456;2022-09-12T13:32:01;26.20;99.90
9497;DHT22;4786;51.270;4.456;2022-09-12T13:34:34;26.20;99.90
9497;DHT22;4786;51.270;4.456;2022-09-12T13:39:57;26.20;99.90
9497;DHT22;4786;51.270;4.456;2022-09-12T13:42:39;26.20;99.90
9497;DHT22;4786;51.270;4.456;2022-09-12T13:47:44;26.20;99.90
9497;DHT22;4786;51.270;4.456;2022-09-12T13:50:18;26.20;99.90
9497;DHT22;4786;51.270;4.456;2022-09-12T13:52:54;26.20;99.90
9497;DHT22;4786;51.270;4.456;2022-09-12T13:55:30;26.20;99.90
9497;DHT22;4786;51.270;4.456;2022-09-12T13:58:23;26.20;99.90
9497;DHT22;4786;51.270;4.456;2022-09-12T14:03:31;26.20;99.90
9497;DHT22;4786;51.270;4.456;2022-09-12T14:06:16;26.10;99.90
9497;DHT22;4786;51.270;4.456;2022-09-12T14:08:47;26.20;99.90
9497;DHT22;4786;51.270;4.456;2022-09-12T14:11:25;26.20;99.90
9497;DHT22;4786;51.270;4.456;2022-09-12T14:13:52;26.10;98.90
9497;DHT22;4786;51.270;4.456;2022-09-12T14:16:19;26.00;99.90
9497;DHT22;4786;51.270;4.456;2022-09-12T14:18:49;26.00;99.90
9497;DHT22;4786;51.270;4.456;2022-09-12T14:23:57;26.10;99.90
9497;DHT22;4786;51.270;4.456;2022-09-12T14:26:26;26.10;99.60
9497;DHT22;4786;51.270;4.456;2022-09-12T14:28:53;26.10;99.90
9497;DHT22;4786;51.270;4.456;2022-09-12T14:31:27;26.10;99.90
9497;DHT22;4786;51.270;4.456;2022-09-12T14:34:07;26.10;99.90
9497;DHT22;4786;51.270;4.456;2022-09-12T14:36:54;26.10;99.90
9497;DHT22;4786;51.270;4.456;2022-09-12T14:39:42;26.20;99.90
9497;DHT22;4786;51.270;4.456;2022-09-12T14:42:13;26.20;99.30
9497;DHT22;4786;51.270;4.456;2022-09-12T14:47:23;26.10;99.90
9497;DHT22;4786;51.270;4.456;2022-09-12T14:49:50;26.10;99.90
9497;DHT22;4786;51.270;4.456;2022-09-12T14:52:35;26.10;99.90
9497;DHT22;4786;51.270;4.456;2022-09-12T14:57:43;25.80;99.90
9497;DHT22;4786;51.270;4.456;2022-09-12T15:00:18;25.70;99.90
9497;DHT22;4786;51.270;4.456;2022-09-12T15:02:51;25.70;99.90
9497;DHT22;4786;51.270;4.456;2022-09-12T15:05:22;25.70;99.90
9497;DHT22;4786;51.270;4.456;2022-09-12T15:08:01;25.70;99.90
9497;DHT22;4786;51.270;4.456;2022-09-12T15:15:30;25.80;99.90
9497;DHT22;4786;51.270;4.456;2022-09-12T15:17:56;25.80;99.90
9497;DHT22;4786;51.270;4.456;2022-09-12T15:20:22;25.80;99.90
9497;DHT22;4786;51.270;4.456;2022-09-12T15:22:48;25.70;99.90
9497;DHT22;4786;51.270;4.456;2022-09-12T15:25:15;25.80;99.90
9497;DHT22;4786;51.270;4.456;2022-09-12T15:27:41;25.70;99.90
9497;DHT22;4786;51.270;4.456;2022-09-12T15:30:11;25.60;99.90
9497;DHT22;4786;51.270;4.456;2022-09-12T15:32:38;25.60;99.90
9497;DHT22;4786;51.270;4.456;2022-09-12T15:35:22;25.60;99.90
9497;DHT22;4786;51.270;4.456;2022-09-12T15:37:49;25.60;99.90
9497;DHT22;4786;51.270;4.456;2022-09-12T15:40:15;25.60;99.90
9497;DHT22;4786;51.270;4.456;2022-09-12T15:42:42;25.60;99.90
9497;DHT22;4786;51.270;4.456;2022-09-12T15:45:15;25.60;99.90
9497;DHT22;4786;51.270;4.456;2022-09-12T15:47:42;25.60;99.90
9497;DHT22;4786;51.270;4.456;2022-09-12T15:50:08;25.50;99.90
9497;DHT22;4786;51.270;4.456;2022-09-12T15:52:35;25.60;99.90
9497;DHT22;4786;51.270;4.456;2022-09-12T15:55:02;25.50;99.90
9497;DHT22;4786;51.270;4.456;2022-09-12T15:57:28;25.50;99.90
9497;DHT22;4786;51.270;4.456;2022-09-12T15:59:54;25.50;99.90
9497;DHT22;4786;51.270;4.456;2022-09-12T16:02:20;25.50;99.90
9497;DHT22;4786;51.270;4.456;2022-09-12T16:04:46;25.40;99.90
9497;DHT22;4786;51.270;4.456;2022-09-12T16:07:12;25.40;99.90
9497;DHT22;4786;51.270;4.456;2022-09-12T16:09:38;25.40;99.90
9497;DHT22;4786;51.270;4.456;2022-09-12T16:12:04;25.40;99.90
9497;DHT22;4786;51.270;4.456;2022-09-12T16:14:31;25.30;99.90
9497;DHT22;4786;51.270;4.456;2022-09-12T16:16:56;25.30;99.90
9497;DHT22;4786;51.270;4.456;2022-09-12T16:19:22;25.30;99.90
9497;DHT22;4786;51.270;4.456;2022-09-12T16:21:49;25.20;99.90
9497;DHT22;4786;51.270;4.456;2022-09-12T16:24:15;25.10;99.90
9497;DHT22;4786;51.270;4.456;2022-09-12T16:26:41;25.00;99.90
9497;DHT22;4786;51.270;4.456;2022-09-12T16:29:10;24.90;99.90
9497;DHT22;4786;51.270;4.456;2022-09-12T16:31:36;24.80;99.90
9497;DHT22;4786;51.270;4.456;2022-09-12T16:34:03;24.80;99.90
9497;DHT22;4786;51.270;4.456;2022-09-12T16:36:29;24.70;99.90
9497;DHT22;4786;51.270;4.456;2022-09-12T16:38:55;24.70;99.90
9497;DHT22;4786;51.270;4.456;2022-09-12T16:41:23;24.70;99.90
9497;DHT22;4786;51.270;4.456;2022-09-12T16:43:52;24.70;99.90
9497;DHT22;4786;51.270;4.456;2022-09-12T16:46:21;24.80;99.90
9497;DHT22;4786;51.270;4.456;2022-09-12T16:48:52;24.80;99.90
9497;DHT22;4786;51.270;4.456;2022-09-12T16:51:20;24.80;99.90
9497;DHT22;4786;51.270;4.456;2022-09-12T16:53:47;24.70;99.90
9497;DHT22;4786;51.270;4.456;2022-09-12T16:56:13;24.70;99.90
9497;DHT22;4786;51.270;4.456;2022-09-12T16:58:40;24.70;99.90
9497;DHT22;4786;51.270;4.456;2022-09-12T17:01:08;24.60;99.90
9497;DHT22;4786;51.270;4.456;2022-09-12T17:03:35;24.60;99.90
9497;DHT22;4786;51.270;4.456;2022-09-12T17:06:03;24.50;99.90
9497;DHT22;4786;51.270;4.456;2022-09-12T17:08:29;24.40;99.90
9497;DHT22;4786;51.270;4.456;2022-09-12T17:11:09;24.40;99.90
9497;DHT22;4786;51.270;4.456;2022-09-12T17:13:37;24.40;99.90
9497;DHT22;4786;51.270;4.456;2022-09-12T17:16:08;24.30;99.90
9497;DHT22;4786;51.270;4.456;2022-09-12T17:18:34;24.30;99.90
9497;DHT22;4786;51.270;4.456;2022-09-12T17:21:00;24.20;99.90
9497;DHT22;4786;51.270;4.456;2022-09-12T17:23:27;24.20;99.90
9497;DHT22;4786;51.270;4.456;2022-09-12T17:25:53;24.10;99.90
9497;DHT22;4786;51.270;4.456;2022-09-12T17:28:20;24.00;99.90
9497;DHT22;4786;51.270;4.456;2022-09-12T17:30:46;24.00;99.90
9497;DHT22;4786;51.270;4.456;2022-09-12T17:33:12;24.00;99.90
9497;DHT22;4786;51.270;4.456;2022-09-12T17:35:39;24.00;99.90
9497;DHT22;4786;51.270;4.456;2022-09-12T17:38:07;23.90;99.90
9497;DHT22;4786;51.270;4.456;2022-09-12T17:40:34;23.80;99.90
9497;DHT22;4786;51.270;4.456;2022-09-12T17:43:00;23.80;99.90
9497;DHT22;4786;51.270;4.456;2022-09-12T17:45:26;23.70;99.90
9497;DHT22;4786;51.270;4.456;2022-09-12T17:47:53;23.60;99.90
9497;DHT22;4786;51.270;4.456;2022-09-12T17:50:19;23.60;99.90
9497;DHT22;4786;51.270;4.456;2022-09-12T17:52:45;23.50;99.90
9497;DHT22;4786;51.270;4.456;2022-09-12T17:55:11;23.40;99.90
9497;DHT22;4786;51.270;4.456;2022-09-12T17:57:38;23.30;99.90
9497;DHT22;4786;51.270;4.456;2022-09-12T18:00:05;23.20;99.90
9497;DHT22;4786;51.270;4.456;2022-09-12T18:02:31;23.10;99.90
9497;DHT22;4786;51.270;4.456;2022-09-12T18:04:57;23.00;99.90
9497;DHT22;4786;51.270;4.456;2022-09-12T18:07:23;22.90;99.90
9497;DHT22;4786;51.270;4.456;2022-09-12T18:09:49;22.80;99.90
9497;DHT22;4786;51.270;4.456;2022-09-12T18:12:16;22.70;99.90
9497;DHT22;4786;51.270;4.456;2022-09-12T18:14:42;22.60;99.90
9497;DHT22;4786;51.270;4.456;2022-09-12T18:17:08;22.60;99.90
9497;DHT22;4786;51.270;4.456;2022-09-12T18:19:36;22.50;99.90
9497;DHT22;4786;51.270;4.456;2022-09-12T18:22:03;22.40;99.90
9497;DHT22;4786;51.270;4.456;2022-09-12T18:24:34;22.30;99.90
9497;DHT22;4786;51.270;4.456;2022-09-12T18:27:00;22.20;99.90
9497;DHT22;4786;51.270;4.456;2022-09-12T18:29:28;22.10;99.90
9497;DHT22;4786;51.270;4.456;2022-09-12T18:31:54;22.10;99.90
9497;DHT22;4786;51.270;4.456;2022-09-12T18:34:20;22.00;99.90
9497;DHT22;4786;51.270;4.456;2022-09-12T18:36:48;21.90;99.90
9497;DHT22;4786;51.270;4.456;2022-09-12T18:39:15;21.90;99.90
9497;DHT22;4786;51.270;4.456;2022-09-12T18:41:42;21.80;99.90
9497;DHT22;4786;51.270;4.456;2022-09-12T18:44:12;21.80;99.90
9497;DHT22;4786;51.270;4.456;2022-09-12T18:46:39;21.70;99.90
9497;DHT22;4786;51.270;4.456;2022-09-12T18:49:05;21.60;99.90
9497;DHT22;4786;51.270;4.456;2022-09-12T18:51:35;21.50;99.90
9497;DHT22;4786;51.270;4.456;2022-09-12T18:54:06;21.40;99.90
9497;DHT22;4786;51.270;4.456;2022-09-12T18:56:34;21.30;99.90
9497;DHT22;4786;51.270;4.456;2022-09-12T18:59:03;21.30;99.90
9497;DHT22;4786;51.270;4.456;2022-09-12T19:01:36;21.30;99.90
9497;DHT22;4786;51.270;4.456;2022-09-12T19:04:04;21.20;99.90
9497;DHT22;4786;51.270;4.456;2022-09-12T19:06:36;21.20;99.90